Time;durP1;ratioP1;P1;durP2;ratioP2;P2;SDS_P1;SDS_P2;PMS_P1;PMS_P2;Temp;Humidity;BMP_temperature;BMP_pressure;BME280_temperature;BME280_humidity;BME280_pressure;Samples;Min_cycle;Max_cycle;Signal;HPM_P1;HPM_P2
2022/04/26 03:36:58;;;;;;;15.60;14.57;;;10.50;99.90;;;;;;5141686;27;20673;-82
2022/04/26 03:39:24;;;;;;;16.93;15.63;;;10.80;99.90;;;;;;5142957;27;20609;-83
2022/04/26 03:41:51;;;;;;;17.70;16.30;;;10.40;99.90;;;;;;5140718;27;21455;-83
2022/04/26 03:44:18;;;;;;;16.90;15.60;;;10.60;99.90;;;;;;5144202;27;20613;-83
2022/04/26 03:46:45;;;;;;;17.10;15.90;;;10.40;99.90;;;;;;5143847;27;20645;-83
2022/04/26 03:49:14;;;;;;;18.20;16.97;;;10.80;99.90;;;;;;5139807;27;20622;-80
2022/04/26 03:51:41;;;;;;;24.97;23.07;;;10.50;99.90;;;;;;5142134;27;20613;-83
2022/04/26 03:54:08;;;;;;;38.13;35.03;;;10.70;99.90;;;;;;5143683;27;20609;-82
2022/04/26 03:56:35;;;;;;;28.17;25.77;;;10.50;99.90;;;;;;5146856;27;20617;-81
2022/04/26 03:59:01;;;;;;;21.97;20.40;;;10.70;99.90;;;;;;5141669;27;20652;-81
2022/04/26 04:01:28;;;;;;;19.33;17.83;;;10.30;99.90;;;;;;5141305;27;20889;-81
2022/04/26 04:03:55;;;;;;;15.37;14.27;;;10.70;99.90;;;;;;5146303;27;20636;-81
2022/04/26 04:06:23;;;;;;;13.93;12.93;;;10.90;99.90;;;;;;5145031;27;21015;-81
2022/04/26 04:08:50;;;;;;;25.30;23.20;;;10.50;99.90;;;;;;5140160;27;20636;-83
2022/04/26 04:11:16;;;;;;;25.90;23.90;;;10.30;99.90;;;;;;5141025;27;20748;-81
2022/04/26 04:13:43;;;;;;;15.60;14.40;;;10.50;99.90;;;;;;5141319;27;20684;-81
2022/04/26 04:16:10;;;;;;;12.47;11.50;;;10.70;99.90;;;;;;5144558;27;20619;-81
2022/04/26 04:21:22;;;;;;;10.73;10.00;;;10.40;99.90;;;;;;5142274;27;20630;-81
2022/04/26 04:23:49;;;;;;;10.30;9.60;;;10.40;99.90;;;;;;5135792;27;20602;-81
2022/04/26 04:26:16;;;;;;;8.00;7.30;;;10.70;99.90;;;;;;5143490;27;20669;-82
2022/04/26 04:28:43;;;;;;;7.20;6.70;;;10.60;99.90;;;;;;5142305;27;21015;-81
2022/04/26 04:31:10;;;;;;;7.07;6.57;;;10.60;99.90;;;;;;5138665;27;20651;-81
2022/04/26 04:33:37;;;;;;;6.23;5.83;;;10.70;99.90;;;;;;5141356;27;20625;-81
2022/04/26 04:36:04;;;;;;;7.67;7.17;;;10.30;99.90;;;;;;5144722;27;20628;-82
2022/04/26 04:38:35;;;;;;;7.40;6.80;;;10.80;99.90;;;;;;5138082;27;21097;-81
2022/04/26 04:41:02;;;;;;;6.83;5.90;;;11.00;99.90;;;;;;5139911;27;20673;-81
2022/04/26 04:43:29;;;;;;;7.93;7.40;;;10.40;99.90;;;;;;5142955;27;20621;-82
2022/04/26 04:45:56;;;;;;;7.50;6.90;;;10.60;99.90;;;;;;5139975;27;20673;-82
2022/04/26 04:48:22;;;;;;;8.23;7.67;;;10.70;99.90;;;;;;5141043;27;20606;-82
2022/04/26 04:50:49;;;;;;;7.47;6.87;;;10.70;99.90;;;;;;5140490;27;20681;-80
2022/04/26 04:53:19;;;;;;;7.10;6.50;;;10.20;99.90;;;;;;5139679;27;20648;-83
2022/04/26 04:55:47;;;;;;;7.53;7.03;;;10.70;99.90;;;;;;5140264;27;20674;-81
2022/04/26 04:58:14;;;;;;;7.93;7.40;;;10.60;99.90;;;;;;5140830;27;20887;-81
2022/04/26 05:00:41;;;;;;;7.57;7.07;;;10.40;99.90;;;;;;5134827;27;20650;-80
2022/04/26 05:03:08;;;;;;;6.97;6.47;;;10.50;99.90;;;;;;5119824;27;20646;-80
2022/04/26 05:05:36;;;;;;;8.47;7.83;;;10.80;99.90;;;;;;5144104;27;21176;-81
2022/04/26 05:08:02;;;;;;;8.43;7.83;;;10.30;99.90;;;;;;5131146;27;20629;-80
2022/04/26 05:10:32;;;;;;;9.00;8.40;;;10.30;99.90;;;;;;5143640;27;20692;-81
2022/04/26 05:13:00;;;;;;;8.00;7.50;;;10.90;99.90;;;;;;5139656;27;20642;-81
2022/04/26 05:15:27;;;;;;;8.10;7.50;;;10.60;99.90;;;;;;5141191;27;20633;-82
2022/04/26 05:17:53;;;;;;;8.60;8.00;;;10.30;99.90;;;;;;5140857;27;22307;-82
2022/04/26 05:20:20;;;;;;;8.40;7.80;;;10.30;99.90;;;;;;5133896;27;20676;-81
2022/04/26 05:25:33;;;;;;;8.97;8.37;;;10.50;99.90;;;;;;5140899;27;20595;-81
2022/04/26 05:28:02;;;;;;;9.30;8.70;;;10.20;99.90;;;;;;5141472;27;20627;-81
2022/04/26 05:30:29;;;;;;;9.70;8.90;;;10.20;99.90;;;;;;5138923;27;20657;-83
2022/04/26 05:32:56;;;;;;;9.40;8.70;;;10.40;99.90;;;;;;5133619;27;20625;-82
2022/04/26 05:35:24;;;;;;;8.67;8.07;;;10.60;99.90;;;;;;5145506;27;20605;-82
2022/04/26 05:37:51;;;;;;;8.83;8.23;;;10.70;99.90;;;;;;5140650;27;20674;-82
2022/04/26 05:40:18;;;;;;;8.00;7.43;;;10.60;99.90;;;;;;5136620;27;20646;-82
2022/04/26 05:42:45;;;;;;;9.10;8.50;;;10.50;99.90;;;;;;5143278;27;20610;-81
2022/04/26 05:45:13;;;;;;;9.37;8.73;;;10.50;99.90;;;;;;5140787;27;20648;-81
2022/04/26 05:47:42;;;;;;;11.67;10.83;;;10.80;99.90;;;;;;5142217;27;20713;-81
2022/04/26 05:50:09;;;;;;;10.97;10.17;;;10.50;99.90;;;;;;5142024;27;20649;-82
2022/04/26 05:52:36;;;;;;;10.10;9.40;;;10.90;99.90;;;;;;5145617;27;20618;-82
2022/04/26 05:55:05;;;;;;;9.63;8.83;;;10.60;99.90;;;;;;5144577;27;20625;-82
2022/04/26 05:57:32;;;;;;;8.50;7.80;;;10.90;99.90;;;;;;5145051;27;20601;-83
2022/04/26 05:59:59;;;;;;;7.73;7.23;;;10.80;99.90;;;;;;5145395;27;21230;-83
2022/04/26 06:02:27;;;;;;;8.33;7.83;;;10.70;99.90;;;;;;5145974;27;20736;-82
2022/04/26 06:04:54;;;;;;;8.50;7.90;;;11.10;99.90;;;;;;5142747;27;20620;-82
2022/04/26 06:07:21;;;;;;;8.47;7.97;;;10.60;99.90;;;;;;5142984;27;20704;-82
2022/04/26 06:09:50;;;;;;;10.63;9.83;;;10.70;99.90;;;;;;5142656;27;20657;-82
2022/04/26 06:12:17;;;;;;;9.20;8.63;;;10.70;99.90;;;;;;5133152;27;20719;-82
2022/04/26 06:14:44;;;;;;;8.70;8.17;;;10.70;99.90;;;;;;5140687;27;20630;-81
2022/04/26 06:17:10;;;;;;;8.47;7.87;;;10.80;99.90;;;;;;5141425;27;20621;-82
2022/04/26 06:19:39;;;;;;;12.67;11.77;;;10.80;99.90;;;;;;5145791;27;21288;-82
2022/04/26 06:22:06;;;;;;;10.70;10.00;;;10.80;99.90;;;;;;5136583;27;20641;-82
2022/04/26 06:24:32;;;;;;;9.10;8.50;;;11.00;99.90;;;;;;5144044;27;20624;-82
2022/04/26 06:26:59;;;;;;;13.83;12.73;;;11.00;99.90;;;;;;5138798;27;20708;-82
2022/04/26 06:29:26;;;;;;;21.77;19.57;;;10.70;99.90;;;;;;5141114;27;20627;-82
2022/04/26 06:31:53;;;;;;;12.43;11.43;;;11.00;99.90;;;;;;5143782;27;21484;-82
2022/04/26 06:34:20;;;;;;;14.07;12.97;;;10.70;99.90;;;;;;5138230;27;20618;-82
2022/04/26 06:36:48;;;;;;;14.00;12.90;;;10.80;99.90;;;;;;5142127;27;21039;-82
2022/04/26 06:39:16;;;;;;;10.87;10.07;;;10.70;99.90;;;;;;5139752;27;20618;-82
2022/04/26 06:41:43;;;;;;;10.60;9.87;;;11.30;99.90;;;;;;5140138;27;21172;-82
2022/04/26 06:44:10;;;;;;;10.37;9.67;;;10.70;99.90;;;;;;5144499;27;20633;-82
2022/04/26 06:46:37;;;;;;;11.03;10.33;;;11.10;99.90;;;;;;5137098;27;21032;-81
2022/04/26 06:49:04;;;;;;;11.00;10.17;;;11.20;99.90;;;;;;5142725;27;20716;-82
2022/04/26 06:51:33;;;;;;;11.47;10.63;;;10.70;99.90;;;;;;5146947;27;20617;-82
2022/04/26 06:54:01;;;;;;;11.63;10.73;;;10.80;99.90;;;;;;5141096;27;21082;-82
2022/04/26 06:56:30;;;;;;;11.40;10.50;;;10.90;99.90;;;;;;5141179;27;20614;-82
2022/04/26 06:58:56;;;;;;;12.30;11.40;;;11.10;99.90;;;;;;5147593;27;20628;-82
2022/04/26 07:01:23;;;;;;;12.40;11.40;;;10.80;99.90;;;;;;5140023;27;21023;-82
2022/04/26 07:03:50;;;;;;;12.17;11.03;;;11.00;99.90;;;;;;5142023;27;20646;-82
2022/04/26 07:06:17;;;;;;;12.80;11.90;;;11.20;99.90;;;;;;5139467;27;20653;-82
2022/04/26 07:08:44;;;;;;;12.93;12.00;;;11.00;99.90;;;;;;5143388;27;20981;-82
2022/04/26 07:11:14;;;;;;;12.70;11.80;;;11.10;99.90;;;;;;5142343;27;20682;-82
2022/04/26 07:13:41;;;;;;;13.03;12.13;;;11.20;99.90;;;;;;5143546;27;20636;-82
2022/04/26 07:16:08;;;;;;;12.50;11.60;;;11.10;99.90;;;;;;5138040;27;20609;-82
2022/04/26 07:18:35;;;;;;;12.30;11.40;;;10.80;99.90;;;;;;5139653;27;20633;-83
2022/04/26 07:21:01;;;;;;;12.60;11.53;;;11.30;99.90;;;;;;5139484;27;20626;-82
2022/04/26 07:23:28;;;;;;;11.33;10.50;;;11.10;99.90;;;;;;5140772;27;20719;-82
2022/04/26 07:25:55;;;;;;;13.43;12.43;;;10.90;99.90;;;;;;5143969;27;20625;-82
2022/04/26 07:28:23;;;;;;;11.63;10.87;;;10.80;99.90;;;;;;5143608;27;20691;-83
2022/04/26 07:30:50;;;;;;;11.87;10.97;;;11.10;99.90;;;;;;5141260;27;21074;-83
2022/04/26 07:36:02;;;;;;;10.90;10.10;;;10.80;99.90;;;;;;5139753;27;20647;-83
2022/04/26 07:38:28;;;;;;;11.67;10.77;;;10.80;99.90;;;;;;5141308;27;20617;-84
2022/04/26 07:40:55;;;;;;;13.20;12.20;;;11.30;99.90;;;;;;5140152;27;20644;-83
2022/04/26 07:43:23;;;;;;;12.80;11.87;;;11.50;99.90;;;;;;5140288;27;20669;-84
2022/04/26 07:45:50;;;;;;;13.93;12.93;;;11.50;99.90;;;;;;5139268;27;20606;-83
2022/04/26 07:48:20;;;;;;;13.23;12.27;;;11.70;99.90;;;;;;5137513;27;20657;-83
2022/04/26 07:50:48;;;;;;;15.27;14.17;;;11.30;99.90;;;;;;5139216;27;20626;-83
2022/04/26 07:53:15;;;;;;;15.20;14.00;;;11.90;99.90;;;;;;5135897;27;20641;-83
2022/04/26 07:55:42;;;;;;;15.53;14.13;;;12.10;99.90;;;;;;5140965;27;20700;-83
2022/04/26 07:58:10;;;;;;;12.70;11.73;;;12.30;99.90;;;;;;5144150;27;20682;-84
2022/04/26 08:00:38;;;;;;;11.53;10.73;;;12.40;99.90;;;;;;5133293;27;20629;-84
2022/04/26 08:03:06;;;;;;;12.80;11.60;;;12.50;99.90;;;;;;5137630;27;20905;-84
2022/04/26 08:05:33;;;;;;;12.57;11.67;;;12.50;99.90;;;;;;5136643;27;20626;-84
2022/04/26 08:08:00;;;;;;;12.20;11.30;;;12.40;99.90;;;;;;5141072;27;20669;-83
2022/04/26 08:10:27;;;;;;;13.67;12.57;;;12.20;99.90;;;;;;5137116;27;20606;-83
2022/04/26 08:12:54;;;;;;;12.37;11.40;;;12.50;99.90;;;;;;5136207;27;20673;-84
2022/04/26 08:15:21;;;;;;;11.00;10.20;;;12.40;99.90;;;;;;5139080;27;20610;-84
2022/04/26 08:17:50;;;;;;;12.80;11.80;;;12.40;99.90;;;;;;5134725;27;20617;-84
2022/04/26 08:20:17;;;;;;;11.17;10.27;;;12.40;99.90;;;;;;5136150;27;20614;-83
2022/04/26 08:22:44;;;;;;;11.30;10.30;;;12.10;99.90;;;;;;5137908;27;20681;-84
2022/04/26 08:27:57;;;;;;;12.10;11.03;;;12.00;99.90;;;;;;5139374;27;20655;-83
2022/04/26 08:30:24;;;;;;;10.93;10.13;;;12.10;99.90;;;;;;5138947;27;20634;-83
2022/04/26 08:32:52;;;;;;;10.93;10.03;;;12.30;99.90;;;;;;5140041;27;20645;-84
2022/04/26 08:35:21;;;;;;;11.60;10.50;;;12.20;99.90;;;;;;5142129;27;20615;-84
2022/04/26 08:37:48;;;;;;;9.87;9.00;;;12.30;99.90;;;;;;5140143;27;20611;-84
2022/04/26 08:40:15;;;;;;;9.43;8.43;;;12.50;99.90;;;;;;5136895;27;20629;-84
2022/04/26 08:42:44;;;;;;;9.83;9.07;;;12.50;99.90;;;;;;5140702;27;20668;-83
2022/04/26 08:45:13;;;;;;;9.60;8.83;;;12.40;99.90;;;;;;5143932;27;20668;-84
2022/04/26 08:53:11;;;;;;;10.17;9.37;;;12.80;99.90;;;;;;5138417;27;20645;-84
2022/04/26 08:55:43;;;;;;;8.57;7.87;;;13.00;99.90;;;;;;5141918;27;20613;-84
2022/04/26 08:58:11;;;;;;;9.23;8.33;;;13.10;99.90;;;;;;5134908;27;20713;-83
2022/04/26 09:00:39;;;;;;;9.57;8.80;;;13.20;99.90;;;;;;5144982;27;21358;-83
2022/04/26 09:03:08;;;;;;;10.10;9.20;;;13.30;99.90;;;;;;5140005;27;20653;-84
2022/04/26 09:05:37;;;;;;;9.07;8.37;;;13.40;99.90;;;;;;5141060;27;21178;-83
2022/04/26 09:08:22;;;;;;;8.83;8.03;;;13.40;99.90;;;;;;5135662;27;21025;-85
2022/04/26 09:10:50;;;;;;;10.00;9.00;;;13.50;99.90;;;;;;5137527;27;20622;-83
2022/04/26 09:13:20;;;;;;;9.13;8.43;;;13.50;99.90;;;;;;5131967;27;20650;-84
2022/04/26 09:15:49;;;;;;;9.73;8.90;;;13.60;99.90;;;;;;5137369;27;20606;-84
2022/04/26 09:18:21;;;;;;;9.47;8.60;;;13.70;99.90;;;;;;5139962;27;20626;-84
2022/04/26 09:20:52;;;;;;;9.63;8.70;;;13.60;99.90;;;;;;5137386;27;20677;-84
2022/04/26 09:23:20;;;;;;;11.43;10.00;;;13.70;99.90;;;;;;5139301;27;21004;-84
2022/04/26 09:25:48;;;;;;;8.67;7.73;;;13.80;99.90;;;;;;5135550;27;21145;-84
2022/04/26 09:28:27;;;;;;;10.53;8.10;;;13.80;99.90;;;;;;5137532;27;21190;-84
2022/04/26 09:30:54;;;;;;;10.07;9.27;;;13.70;99.90;;;;;;5142412;27;20621;-83
2022/04/26 09:33:38;;;;;;;10.07;9.07;;;13.70;99.90;;;;;;5143298;27;20648;-83
2022/04/26 09:36:09;;;;;;;10.07;9.10;;;13.80;99.90;;;;;;5147205;27;20617;-84
2022/04/26 09:38:36;;;;;;;10.27;9.20;;;13.70;99.90;;;;;;5139968;27;20661;-83
2022/04/26 09:41:04;;;;;;;8.10;7.30;;;13.70;99.90;;;;;;5145390;27;20636;-84
2022/04/26 09:43:31;;;;;;;6.87;6.07;;;13.60;99.90;;;;;;5143279;27;20673;-85
2022/04/26 09:46:00;;;;;;;7.83;7.23;;;13.70;99.90;;;;;;5143768;27;20632;-82
2022/04/26 09:48:29;;;;;;;11.53;7.83;;;13.50;99.90;;;;;;5139881;27;20649;-83
2022/04/26 09:50:57;;;;;;;7.80;7.10;;;13.80;99.90;;;;;;5146296;27;20620;-85
2022/04/26 09:53:29;;;;;;;7.63;6.97;;;13.80;99.90;;;;;;5143273;27;20690;-82
2022/04/26 09:55:57;;;;;;;7.10;6.60;;;13.90;99.90;;;;;;5139076;27;20606;-83
2022/04/26 09:58:26;;;;;;;7.13;6.40;;;13.80;99.90;;;;;;5142159;27;21394;-84
2022/04/26 10:00:54;;;;;;;7.90;6.20;;;13.90;99.90;;;;;;5143677;27;21140;-83
2022/04/26 10:03:28;;;;;;;7.50;6.90;;;14.10;99.90;;;;;;5140915;27;21369;-83
2022/04/26 10:06:00;;;;;;;10.17;6.87;;;14.20;99.90;;;;;;5144314;27;20655;-83
2022/04/26 10:08:31;;;;;;;7.03;6.50;;;14.40;99.90;;;;;;5134936;27;20661;-83
2022/04/26 10:10:58;;;;;;;7.73;7.00;;;14.60;99.90;;;;;;5144590;27;20656;-83
2022/04/26 10:13:39;;;;;;;7.67;6.47;;;14.90;99.90;;;;;;5135191;27;20645;-83
2022/04/26 10:16:08;;;;;;;7.03;6.33;;;15.20;99.90;;;;;;5140261;27;20612;-83
2022/04/26 10:18:39;;;;;;;7.03;6.33;;;15.40;99.90;;;;;;5145343;27;20617;-83
2022/04/26 10:21:07;;;;;;;8.10;7.07;;;15.60;99.90;;;;;;5142840;27;20659;-83
2022/04/26 10:24:17;;;;;;;6.70;4.80;;;15.70;99.90;;;;;;5140949;27;20636;-83
2022/04/26 10:26:44;;;;;;;5.90;5.40;;;15.90;99.90;;;;;;5129547;27;20626;-83
2022/04/26 10:29:20;;;;;;;7.40;6.70;;;16.30;99.90;;;;;;5144256;27;21195;-83
2022/04/26 10:31:49;;;;;;;7.67;7.07;;;16.60;99.90;;;;;;5137442;27;20614;-84
2022/04/26 10:34:20;;;;;;;6.93;6.23;;;16.80;99.90;;;;;;5138070;27;20650;-83
2022/04/26 10:36:48;;;;;;;5.33;4.93;;;16.80;99.90;;;;;;5136975;27;20718;-84
2022/04/26 10:39:31;;;;;;;5.37;4.87;;;16.90;99.90;;;;;;5142451;27;20629;-83
2022/04/26 10:41:59;;;;;;;5.13;4.63;;;16.90;99.50;;;;;;5136351;27;20626;-83
2022/04/26 10:44:32;;;;;;;5.30;4.90;;;16.80;99.90;;;;;;5143581;27;20670;-84
2022/04/26 10:47:29;;;;;;;5.37;4.90;;;16.90;99.60;;;;;;5146629;27;20617;-83
2022/04/26 10:50:02;;;;;;;5.23;4.73;;;16.80;95.30;;;;;;5082254;27;20648;-84
2022/04/26 10:52:50;;;;;;;4.40;3.67;;;16.80;91.60;;;;;;5137760;27;21238;-84
2022/04/26 10:55:26;;;;;;;3.43;3.23;;;16.70;91.40;;;;;;5139520;27;21035;-83
2022/04/26 10:57:55;;;;;;;6.10;4.00;;;16.80;90.70;;;;;;5133914;27;20925;-83
2022/04/26 11:00:37;;;;;;;6.50;4.33;;;17.00;86.00;;;;;;5142765;27;20662;-84
2022/04/26 11:03:07;;;;;;;4.40;4.00;;;17.20;90.60;;;;;;5143278;27;20783;-84
2022/04/26 11:05:34;;;;;;;4.90;4.40;;;17.50;91.60;;;;;;5136967;27;20617;-84
2022/04/26 11:08:03;;;;;;;4.27;3.97;;;18.00;93.10;;;;;;5141335;27;21218;-84
2022/04/26 11:11:00;;;;;;;5.60;4.70;;;18.20;85.70;;;;;;5140521;27;20630;-84
2022/04/26 11:13:31;;;;;;;4.70;3.80;;;18.50;79.00;;;;;;5137182;27;20686;-84
2022/04/26 11:16:13;;;;;;;4.40;4.10;;;18.60;85.40;;;;;;5134032;27;20633;-84
2022/04/26 11:18:42;;;;;;;5.37;4.33;;;18.40;79.80;;;;;;5137128;27;20650;-84
2022/04/26 11:21:11;;;;;;;4.70;4.30;;;18.10;77.70;;;;;;5137314;27;20792;-83
2022/04/26 11:29:26;;;;;;;4.33;3.90;;;17.40;92.50;;;;;;5143690;27;20656;-84
2022/04/26 11:31:55;;;;;;;3.70;3.40;;;17.30;89.90;;;;;;5143908;27;21226;-83
2022/04/26 11:34:47;;;;;;;5.93;3.73;;;17.30;86.80;;;;;;5142198;27;20616;-83
2022/04/26 11:37:14;;;;;;;5.20;4.70;;;17.30;82.90;;;;;;5141053;27;20594;-83
2022/04/26 11:39:42;;;;;;;6.70;6.20;;;17.00;91.90;;;;;;5138934;27;20657;-83
2022/04/26 11:42:12;;;;;;;7.80;7.00;;;16.20;98.10;;;;;;5138477;27;20692;-83
2022/04/26 11:44:56;;;;;;;7.10;6.60;;;15.60;99.90;;;;;;5138475;27;20638;-83
2022/04/26 11:47:42;;;;;;;7.77;7.00;;;15.40;99.90;;;;;;5136016;27;20648;-83
2022/04/26 11:50:20;;;;;;;7.23;6.63;;;15.30;99.90;;;;;;5138546;27;20614;-83
2022/04/26 11:52:48;;;;;;;7.43;6.83;;;15.30;99.90;;;;;;5140542;27;20713;-83
2022/04/26 11:55:24;;;;;;;6.13;5.63;;;15.40;99.90;;;;;;5137708;27;20625;-83
2022/04/26 11:57:53;;;;;;;6.70;6.10;;;15.80;99.90;;;;;;5140117;27;20614;-83
2022/04/26 12:00:22;;;;;;;7.60;5.87;;;16.10;99.90;;;;;;5144175;27;20622;-83
2022/04/26 12:02:50;;;;;;;6.47;5.93;;;16.40;99.90;;;;;;5140996;27;20662;-82
2022/04/26 12:05:21;;;;;;;5.47;5.00;;;16.20;99.00;;;;;;5142593;27;21231;-83
2022/04/26 12:07:50;;;;;;;6.60;6.00;;;16.00;99.90;;;;;;5139974;27;20610;-83
2022/04/26 12:10:27;;;;;;;5.60;5.10;;;15.90;99.90;;;;;;5139497;27;20963;-83
2022/04/26 12:12:57;;;;;;;5.63;4.93;;;15.70;99.90;;;;;;5131115;27;20658;-83
2022/04/26 12:15:32;;;;;;;6.57;4.50;;;15.50;99.90;;;;;;5144162;27;20682;-84
2022/04/26 12:18:10;;;;;;;4.60;4.30;;;15.30;99.90;;;;;;5137906;27;20628;-83
2022/04/26 12:20:55;;;;;;;8.80;4.93;;;15.20;99.90;;;;;;5133230;27;20625;-82
2022/04/26 12:23:23;;;;;;;4.50;4.10;;;15.00;99.90;;;;;;5130817;27;20742;-82
2022/04/26 12:25:53;;;;;;;4.43;4.13;;;15.10;99.90;;;;;;5140709;27;20629;-83
2022/04/26 12:28:21;;;;;;;4.23;3.93;;;15.30;99.90;;;;;;5138574;27;20642;-83
2022/04/26 12:30:48;;;;;;;4.00;3.70;;;15.60;99.90;;;;;;5136972;27;20629;-83
2022/04/26 12:33:25;;;;;;;5.10;4.70;;;15.80;99.90;;;;;;5144519;27;21207;-83
2022/04/26 12:36:01;;;;;;;4.87;4.57;;;16.00;99.90;;;;;;5136163;27;21000;-83
2022/04/26 12:38:28;;;;;;;4.80;4.40;;;15.90;99.90;;;;;;5138724;27;20623;-82
2022/04/26 12:41:02;;;;;;;5.23;4.73;;;15.80;99.90;;;;;;5138370;27;20952;-83
2022/04/26 12:43:31;;;;;;;5.57;5.17;;;15.50;99.90;;;;;;5139895;27;20644;-83
2022/04/26 12:45:59;;;;;;;5.43;5.07;;;15.40;98.50;;;;;;5136276;27;20684;-83
2022/04/26 12:51:17;;;;;;;6.00;5.50;;;14.80;99.90;;;;;;5134406;27;20721;-83
2022/04/26 12:53:46;;;;;;;8.03;7.00;;;14.50;99.90;;;;;;5133895;27;20776;-84
2022/04/26 12:56:14;;;;;;;7.23;6.73;;;14.30;99.90;;;;;;5139000;27;20978;-83
2022/04/26 12:58:44;;;;;;;9.27;6.77;;;14.00;99.90;;;;;;5144693;27;20612;-83
2022/04/26 13:01:11;;;;;;;4.67;4.27;;;13.90;99.90;;;;;;5138451;27;20641;-83
2022/04/26 13:03:40;;;;;;;4.07;3.70;;;13.60;99.90;;;;;;5137240;27;20643;-83
2022/04/26 13:06:10;;;;;;;4.00;3.57;;;13.50;99.90;;;;;;5134988;27;20625;-83
2022/04/26 13:08:38;;;;;;;5.30;4.37;;;13.10;99.90;;;;;;5142325;27;21188;-83
2022/04/26 13:11:05;;;;;;;4.23;3.93;;;12.90;99.90;;;;;;5138201;27;20630;-82
2022/04/26 13:13:34;;;;;;;4.00;3.70;;;12.30;99.90;;;;;;5141169;27;20661;-83
2022/04/26 13:16:03;;;;;;;3.50;3.30;;;12.40;99.90;;;;;;5141871;27;20678;-83
2022/04/26 13:18:30;;;;;;;2.93;2.73;;;12.20;99.90;;;;;;5137459;27;20610;-83
2022/04/26 13:20:59;;;;;;;2.63;2.50;;;12.10;99.90;;;;;;5134091;27;20629;-83
2022/04/26 13:23:29;;;;;;;3.40;3.03;;;12.00;99.90;;;;;;5140971;27;20641;-83
2022/04/26 13:25:57;;;;;;;3.30;3.00;;;11.60;99.90;;;;;;5137548;27;20633;-83
2022/04/26 13:28:24;;;;;;;3.57;3.27;;;11.70;99.90;;;;;;5139546;27;20666;-81
2022/04/26 13:30:51;;;;;;;6.20;3.00;;;11.70;99.90;;;;;;5138505;27;20653;-84
2022/04/26 13:33:19;;;;;;;4.63;3.70;;;12.00;99.90;;;;;;5144720;27;20660;-84
2022/04/26 13:35:47;;;;;;;3.60;3.30;;;11.50;99.90;;;;;;5137949;27;20611;-83
2022/04/26 13:38:16;;;;;;;4.20;3.80;;;11.50;99.90;;;;;;5135322;27;20617;-83
2022/04/26 13:40:43;;;;;;;3.80;3.50;;;11.80;99.90;;;;;;5138931;27;21142;-83
2022/04/26 13:43:11;;;;;;;4.17;3.20;;;11.90;99.90;;;;;;5138523;27;20692;-83
2022/04/26 13:45:39;;;;;;;3.30;3.00;;;12.50;99.90;;;;;;5139252;27;20618;-84
2022/04/26 13:48:11;;;;;;;3.67;3.47;;;12.80;99.90;;;;;;5134108;27;20613;-84
2022/04/26 13:50:40;;;;;;;3.40;3.20;;;13.20;99.90;;;;;;5139447;27;20689;-83
2022/04/26 13:53:07;;;;;;;3.40;3.20;;;13.60;99.90;;;;;;5137227;27;20729;-83
2022/04/26 13:55:34;;;;;;;4.23;3.33;;;14.00;99.90;;;;;;5138528;27;20606;-83
2022/04/26 13:58:03;;;;;;;3.00;2.63;;;14.30;99.90;;;;;;5136163;27;20632;-83
2022/04/26 14:00:34;;;;;;;3.13;2.93;;;14.80;99.90;;;;;;5133993;27;20628;-83
2022/04/26 14:03:01;;;;;;;3.57;3.27;;;15.60;99.90;;;;;;5137423;27;20653;-83
2022/04/26 14:05:28;;;;;;;3.00;2.47;;;16.60;99.90;;;;;;5142015;27;20850;-84
2022/04/26 14:07:56;;;;;;;2.57;2.37;;;17.50;98.00;;;;;;5140235;27;20621;-83
2022/04/26 14:10:23;;;;;;;3.10;2.40;;;18.30;94.50;;;;;;5133281;27;21026;-83
2022/04/26 14:12:50;;;;;;;2.30;2.20;;;18.80;92.30;;;;;;5138057;27;20665;-84
2022/04/26 14:23:33;;;;;;;2.87;2.67;;;20.40;74.90;;;;;;5138773;27;20725;-85
2022/04/26 14:26:00;;;;;;;2.37;2.17;;;20.40;72.20;;;;;;5142034;27;20667;-84
2022/04/26 14:28:27;;;;;;;2.50;2.30;;;20.30;67.40;;;;;;5141096;27;20992;-84
2022/04/26 14:30:54;;;;;;;2.87;2.40;;;19.90;68.50;;;;;;5141358;27;20621;-84
2022/04/26 14:33:21;;;;;;;3.10;2.07;;;19.70;66.60;;;;;;5134401;27;20652;-84
2022/04/26 14:35:48;;;;;;;3.20;2.33;;;19.80;67.90;;;;;;5139333;27;20606;-84
2022/04/26 14:38:15;;;;;;;1.80;1.70;;;20.10;68.10;;;;;;5137928;27;20992;-83
2022/04/26 14:40:43;;;;;;;1.60;1.50;;;20.80;65.30;;;;;;5144843;27;20813;-84
2022/04/26 14:43:10;;;;;;;2.63;2.43;;;21.10;66.80;;;;;;5139504;27;20685;-84
2022/04/26 14:45:44;;;;;;;2.10;2.00;;;21.40;64.40;;;;;;5142985;27;20625;-84
2022/04/26 14:48:16;;;;;;;6.10;2.77;;;21.70;61.70;;;;;;5140299;27;20678;-84
2022/04/26 14:50:44;;;;;;;3.63;2.80;;;21.40;62.20;;;;;;5143817;27;21019;-84
2022/04/26 14:53:10;;;;;;;2.47;2.27;;;20.70;64.00;;;;;;5141940;27;21474;-84
2022/04/26 14:55:38;;;;;;;3.67;3.00;;;20.20;64.10;;;;;;5142872;27;20984;-84
2022/04/26 14:58:09;;;;;;;2.50;2.30;;;19.50;65.30;;;;;;5141967;27;21171;-84
2022/04/26 15:00:36;;;;;;;2.90;2.70;;;19.00;69.00;;;;;;5130735;27;21045;-84
2022/04/26 15:03:04;;;;;;;2.50;2.40;;;18.50;72.60;;;;;;5144311;27;20665;-84
2022/04/26 15:05:31;;;;;;;3.20;3.00;;;18.20;75.00;;;;;;5137009;27;21398;-84
2022/04/26 15:10:42;;;;;;;4.20;2.50;;;18.10;81.80;;;;;;5138574;27;20783;-84
2022/04/26 15:18:39;;;;;;;2.40;2.20;;;19.00;65.40;;;;;;5141505;27;20638;-84
2022/04/26 15:21:09;;;;;;;2.43;2.13;;;19.20;64.20;;;;;;5139054;27;20621;-83
2022/04/26 15:23:36;;;;;;;2.27;2.17;;;19.50;63.50;;;;;;5140572;27;20653;-84
2022/04/26 15:26:06;;;;;;;2.97;2.67;;;20.00;62.80;;;;;;5144634;27;21085;-84
2022/04/26 15:28:34;;;;;;;2.50;2.40;;;20.00;60.70;;;;;;5139728;27;20626;-83
2022/04/26 15:31:02;;;;;;;2.70;2.50;;;19.90;60.40;;;;;;5137223;27;20937;-83
2022/04/26 15:33:29;;;;;;;3.03;2.83;;;19.60;61.10;;;;;;5139526;27;20736;-84
2022/04/26 15:35:56;;;;;;;2.40;2.20;;;19.30;62.30;;;;;;5142623;27;21164;-83
2022/04/26 15:38:27;;;;;;;2.60;2.27;;;19.00;64.70;;;;;;5132958;27;21179;-83
2022/04/26 15:40:55;;;;;;;2.03;1.93;;;18.70;66.10;;;;;;5136176;27;20726;-83
2022/04/26 15:43:22;;;;;;;2.73;2.30;;;18.30;67.80;;;;;;5140447;27;20705;-84
2022/04/26 15:45:50;;;;;;;2.70;2.50;;;18.00;68.50;;;;;;5137751;27;20622;-84
2022/04/26 15:48:17;;;;;;;2.33;2.13;;;17.60;70.20;;;;;;5137770;27;21186;-83
2022/04/26 15:50:43;;;;;;;2.70;2.50;;;17.40;71.80;;;;;;5140472;27;20642;-84
2022/04/26 15:53:10;;;;;;;3.13;2.83;;;17.10;73.50;;;;;;5132472;27;20681;-83
2022/04/26 15:55:37;;;;;;;3.23;3.03;;;16.70;75.70;;;;;;5135539;27;20971;-84
2022/04/26 15:58:04;;;;;;;4.10;3.00;;;16.40;78.40;;;;;;5139282;27;20621;-83
2022/04/26 16:00:31;;;;;;;2.27;2.07;;;16.10;82.70;;;;;;5134921;27;20626;-83
2022/04/26 16:03:01;;;;;;;3.63;2.97;;;15.60;88.70;;;;;;5140686;27;20745;-83
2022/04/26 16:05:28;;;;;;;3.57;3.33;;;15.30;94.10;;;;;;5141237;27;21203;-84
2022/04/26 16:07:55;;;;;;;4.30;4.00;;;14.90;99.90;;;;;;5143298;27;20621;-83
2022/04/26 16:21:25;;;;;;;4.53;4.23;;;13.10;99.90;;;;;;5135795;27;20605;-83
2022/04/26 16:23:53;;;;;;;7.00;3.70;;;12.90;99.90;;;;;;5136681;27;20666;-83
2022/04/26 16:26:22;;;;;;;3.00;2.80;;;12.80;99.90;;;;;;5134893;27;20625;-83
2022/04/26 16:28:51;;;;;;;5.97;3.73;;;12.90;99.90;;;;;;5138401;27;20674;-83
2022/04/26 16:31:19;;;;;;;4.20;3.90;;;13.00;99.90;;;;;;5138780;27;20622;-86
2022/04/26 16:33:47;;;;;;;3.80;3.50;;;13.10;99.90;;;;;;5141690;27;20650;-84
2022/04/26 16:36:15;;;;;;;3.00;2.80;;;13.10;99.90;;;;;;5139495;27;20618;-85
2022/04/26 16:38:42;;;;;;;3.33;3.13;;;13.00;99.90;;;;;;5137565;27;21153;-84
2022/04/26 16:41:09;;;;;;;3.30;3.10;;;13.00;99.90;;;;;;5140109;27;20710;-84
2022/04/26 16:43:36;;;;;;;3.50;3.20;;;12.90;99.90;;;;;;5139105;27;20716;-85
2022/04/26 16:46:03;;;;;;;3.67;3.33;;;12.70;99.90;;;;;;5139773;27;20651;-85
2022/04/26 16:48:30;;;;;;;3.53;3.23;;;12.70;99.90;;;;;;5137284;27;20625;-84
2022/04/26 16:50:58;;;;;;;2.80;2.60;;;12.70;99.90;;;;;;5143449;27;20665;-84
2022/04/26 16:53:25;;;;;;;2.90;2.60;;;12.80;99.90;;;;;;5142391;27;20645;-84
2022/04/26 16:55:53;;;;;;;3.33;2.87;;;13.00;99.90;;;;;;5140127;27;20625;-85
2022/04/26 16:58:20;;;;;;;2.77;2.40;;;13.20;99.90;;;;;;5139505;27;20633;-84
2022/04/26 17:00:48;;;;;;;3.00;2.80;;;13.30;99.90;;;;;;5137176;27;20614;-84
2022/04/26 17:03:15;;;;;;;3.40;3.17;;;13.30;99.90;;;;;;5137147;27;20807;-84
2022/04/26 17:05:45;;;;;;;3.50;2.97;;;13.20;99.90;;;;;;5141028;27;21227;-84
2022/04/26 17:08:14;;;;;;;3.37;3.07;;;13.30;99.90;;;;;;5137628;27;21238;-85
2022/04/26 17:10:42;;;;;;;5.00;2.87;;;13.00;99.90;;;;;;5142058;27;20662;-84
2022/04/26 17:13:09;;;;;;;2.70;2.50;;;12.50;99.90;;;;;;5141840;27;21351;-84
2022/04/26 17:15:36;;;;;;;2.70;2.50;;;12.80;99.90;;;;;;5143085;27;20621;-83
2022/04/26 17:18:03;;;;;;;3.10;2.37;;;13.00;99.90;;;;;;5142832;27;20630;-85